sensor_id;sensor_type;location;lat;lon;timestamp;P1;durP1;ratioP1;P2;durP2;ratioP2
43088;SDS011;28709;52.030;5.652;2022-09-13T00:01:25;5.85;;;3.60;;
43088;SDS011;28709;52.030;5.652;2022-09-13T00:03:51;6.88;;;3.80;;
43088;SDS011;28709;52.030;5.652;2022-09-13T00:06:17;5.53;;;3.25;;
43088;SDS011;28709;52.030;5.652;2022-09-13T00:08:43;8.63;;;3.80;;
43088;SDS011;28709;52.030;5.652;2022-09-13T00:11:28;4.50;;;2.90;;
43088;SDS011;28709;52.030;5.652;2022-09-13T00:13:55;6.00;;;3.90;;
43088;SDS011;28709;52.030;5.652;2022-09-13T00:16:23;5.80;;;3.90;;
43088;SDS011;28709;52.030;5.652;2022-09-13T00:18:50;9.20;;;4.38;;
43088;SDS011;28709;52.030;5.652;2022-09-13T00:21:18;6.63;;;4.03;;
43088;SDS011;28709;52.030;5.652;2022-09-13T00:23:45;8.50;;;4.05;;
43088;SDS011;28709;52.030;5.652;2022-09-13T00:26:14;8.23;;;3.85;;
43088;SDS011;28709;52.030;5.652;2022-09-13T00:28:41;5.38;;;3.83;;
43088;SDS011;28709;52.030;5.652;2022-09-13T00:31:09;5.35;;;3.45;;
43088;SDS011;28709;52.030;5.652;2022-09-13T00:33:35;5.63;;;4.32;;
43088;SDS011;28709;52.030;5.652;2022-09-13T00:36:04;5.50;;;3.28;;
43088;SDS011;28709;52.030;5.652;2022-09-13T00:38:33;4.75;;;3.92;;
43088;SDS011;28709;52.030;5.652;2022-09-13T00:40:59;5.70;;;3.95;;
43088;SDS011;28709;52.030;5.652;2022-09-13T00:43:45;5.78;;;3.17;;
43088;SDS011;28709;52.030;5.652;2022-09-13T00:51:53;6.03;;;4.53;;
43088;SDS011;28709;52.030;5.652;2022-09-13T00:54:25;6.15;;;4.40;;
43088;SDS011;28709;52.030;5.652;2022-09-13T00:56:57;3.88;;;3.30;;
43088;SDS011;28709;52.030;5.652;2022-09-13T00:59:36;7.22;;;3.80;;
43088;SDS011;28709;52.030;5.652;2022-09-13T01:02:06;10.50;;;4.20;;
43088;SDS011;28709;52.030;5.652;2022-09-13T01:04:33;5.97;;;4.30;;
43088;SDS011;28709;52.030;5.652;2022-09-13T01:07:06;5.97;;;3.70;;
43088;SDS011;28709;52.030;5.652;2022-09-13T01:09:34;4.57;;;3.78;;
43088;SDS011;28709;52.030;5.652;2022-09-13T01:12:05;5.65;;;3.78;;
43088;SDS011;28709;52.030;5.652;2022-09-13T01:14:39;4.32;;;3.47;;
43088;SDS011;28709;52.030;5.652;2022-09-13T01:17:06;12.80;;;4.68;;
43088;SDS011;28709;52.030;5.652;2022-09-13T01:19:32;5.25;;;4.22;;
43088;SDS011;28709;52.030;5.652;2022-09-13T01:22:42;5.40;;;4.38;;
43088;SDS011;28709;52.030;5.652;2022-09-13T01:27:55;5.43;;;4.38;;
43088;SDS011;28709;52.030;5.652;2022-09-13T01:30:37;5.03;;;3.85;;
43088;SDS011;28709;52.030;5.652;2022-09-13T01:33:57;8.15;;;4.47;;
43088;SDS011;28709;52.030;5.652;2022-09-13T01:44:05;4.95;;;3.83;;
43088;SDS011;28709;52.030;5.652;2022-09-13T01:47:28;4.85;;;3.88;;
43088;SDS011;28709;52.030;5.652;2022-09-13T02:00:51;6.65;;;4.00;;
43088;SDS011;28709;52.030;5.652;2022-09-13T02:03:53;4.68;;;4.10;;
43088;SDS011;28709;52.030;5.652;2022-09-13T02:06:35;4.70;;;3.78;;
43088;SDS011;28709;52.030;5.652;2022-09-13T02:09:18;4.38;;;3.47;;
43088;SDS011;28709;52.030;5.652;2022-09-13T02:11:49;5.55;;;3.80;;
43088;SDS011;28709;52.030;5.652;2022-09-13T02:14:34;8.38;;;4.38;;
43088;SDS011;28709;52.030;5.652;2022-09-13T02:17:03;6.22;;;4.32;;
43088;SDS011;28709;52.030;5.652;2022-09-13T02:19:41;5.75;;;3.92;;
43088;SDS011;28709;52.030;5.652;2022-09-13T02:22:19;7.53;;;4.28;;
43088;SDS011;28709;52.030;5.652;2022-09-13T02:24:53;5.03;;;4.03;;
43088;SDS011;28709;52.030;5.652;2022-09-13T02:27:26;5.68;;;4.40;;
43088;SDS011;28709;52.030;5.652;2022-09-13T02:29:57;7.80;;;4.85;;
43088;SDS011;28709;52.030;5.652;2022-09-13T02:32:29;6.18;;;4.75;;
43088;SDS011;28709;52.030;5.652;2022-09-13T02:35:03;6.05;;;4.78;;
43088;SDS011;28709;52.030;5.652;2022-09-13T02:37:37;7.10;;;5.15;;
43088;SDS011;28709;52.030;5.652;2022-09-13T02:40:06;6.63;;;4.40;;
43088;SDS011;28709;52.030;5.652;2022-09-13T02:42:38;9.05;;;5.07;;
43088;SDS011;28709;52.030;5.652;2022-09-13T02:45:07;5.65;;;4.28;;
43088;SDS011;28709;52.030;5.652;2022-09-13T02:53:37;9.18;;;5.20;;
43088;SDS011;28709;52.030;5.652;2022-09-13T02:56:26;7.65;;;5.13;;
43088;SDS011;28709;52.030;5.652;2022-09-13T02:59:20;8.05;;;5.53;;
43088;SDS011;28709;52.030;5.652;2022-09-13T03:01:52;7.60;;;4.63;;
43088;SDS011;28709;52.030;5.652;2022-09-13T03:04:26;9.95;;;5.45;;
43088;SDS011;28709;52.030;5.652;2022-09-13T03:06:52;7.28;;;5.60;;
43088;SDS011;28709;52.030;5.652;2022-09-13T03:09:18;5.15;;;4.22;;
43088;SDS011;28709;52.030;5.652;2022-09-13T03:22:38;8.85;;;5.57;;
43088;SDS011;28709;52.030;5.652;2022-09-13T03:25:24;7.85;;;5.75;;
43088;SDS011;28709;52.030;5.652;2022-09-13T03:28:05;7.75;;;5.43;;
43088;SDS011;28709;52.030;5.652;2022-09-13T03:30:35;12.63;;;6.38;;
43088;SDS011;28709;52.030;5.652;2022-09-13T03:33:38;11.68;;;5.72;;
43088;SDS011;28709;52.030;5.652;2022-09-13T03:36:08;9.63;;;5.97;;
43088;SDS011;28709;52.030;5.652;2022-09-13T03:38:40;17.60;;;6.32;;
43088;SDS011;28709;52.030;5.652;2022-09-13T03:41:12;8.60;;;5.40;;
43088;SDS011;28709;52.030;5.652;2022-09-13T03:43:49;6.80;;;4.88;;
43088;SDS011;28709;52.030;5.652;2022-09-13T03:46:41;10.38;;;5.93;;
43088;SDS011;28709;52.030;5.652;2022-09-13T03:49:14;6.80;;;5.47;;
43088;SDS011;28709;52.030;5.652;2022-09-13T03:51:42;9.25;;;6.57;;
43088;SDS011;28709;52.030;5.652;2022-09-13T03:54:15;7.05;;;5.10;;
43088;SDS011;28709;52.030;5.652;2022-09-13T03:57:02;9.85;;;6.15;;
43088;SDS011;28709;52.030;5.652;2022-09-13T03:59:29;10.32;;;7.05;;
43088;SDS011;28709;52.030;5.652;2022-09-13T04:01:55;8.95;;;6.50;;
43088;SDS011;28709;52.030;5.652;2022-09-13T04:04:21;8.52;;;6.45;;
43088;SDS011;28709;52.030;5.652;2022-09-13T04:06:46;7.72;;;6.18;;
43088;SDS011;28709;52.030;5.652;2022-09-13T04:09:12;8.80;;;5.70;;
43088;SDS011;28709;52.030;5.652;2022-09-13T04:11:38;7.53;;;5.72;;
43088;SDS011;28709;52.030;5.652;2022-09-13T04:14:05;9.07;;;6.43;;
43088;SDS011;28709;52.030;5.652;2022-09-13T04:16:30;7.93;;;6.15;;
43088;SDS011;28709;52.030;5.652;2022-09-13T04:18:56;9.88;;;6.85;;
43088;SDS011;28709;52.030;5.652;2022-09-13T04:21:21;11.13;;;7.38;;
43088;SDS011;28709;52.030;5.652;2022-09-13T04:23:48;11.63;;;7.20;;
43088;SDS011;28709;52.030;5.652;2022-09-13T04:26:14;9.65;;;6.32;;
43088;SDS011;28709;52.030;5.652;2022-09-13T04:28:40;9.70;;;6.35;;
43088;SDS011;28709;52.030;5.652;2022-09-13T04:31:06;12.45;;;6.15;;
43088;SDS011;28709;52.030;5.652;2022-09-13T04:33:32;7.55;;;6.18;;
43088;SDS011;28709;52.030;5.652;2022-09-13T04:35:57;11.70;;;6.95;;
43088;SDS011;28709;52.030;5.652;2022-09-13T04:38:24;10.32;;;7.15;;
43088;SDS011;28709;52.030;5.652;2022-09-13T04:40:53;15.57;;;8.23;;
43088;SDS011;28709;52.030;5.652;2022-09-13T04:43:20;10.88;;;7.80;;
43088;SDS011;28709;52.030;5.652;2022-09-13T04:45:46;10.25;;;7.07;;
43088;SDS011;28709;52.030;5.652;2022-09-13T04:48:12;8.25;;;6.35;;
43088;SDS011;28709;52.030;5.652;2022-09-13T04:50:37;8.77;;;5.55;;
43088;SDS011;28709;52.030;5.652;2022-09-13T04:53:03;7.82;;;6.10;;
43088;SDS011;28709;52.030;5.652;2022-09-13T04:55:29;9.00;;;5.72;;
43088;SDS011;28709;52.030;5.652;2022-09-13T04:57:55;6.75;;;5.05;;
43088;SDS011;28709;52.030;5.652;2022-09-13T05:00:21;9.75;;;6.78;;
43088;SDS011;28709;52.030;5.652;2022-09-13T05:02:47;10.23;;;5.93;;
43088;SDS011;28709;52.030;5.652;2022-09-13T05:05:12;8.48;;;6.07;;
43088;SDS011;28709;52.030;5.652;2022-09-13T05:07:39;7.07;;;5.35;;
43088;SDS011;28709;52.030;5.652;2022-09-13T05:10:04;10.98;;;5.70;;
43088;SDS011;28709;52.030;5.652;2022-09-13T05:12:30;10.23;;;5.88;;
43088;SDS011;28709;52.030;5.652;2022-09-13T05:14:56;7.78;;;5.78;;
43088;SDS011;28709;52.030;5.652;2022-09-13T05:17:22;10.70;;;7.05;;
43088;SDS011;28709;52.030;5.652;2022-09-13T05:19:47;8.18;;;6.10;;
43088;SDS011;28709;52.030;5.652;2022-09-13T05:22:13;8.20;;;5.95;;
43088;SDS011;28709;52.030;5.652;2022-09-13T05:24:39;7.68;;;5.10;;
43088;SDS011;28709;52.030;5.652;2022-09-13T05:27:04;13.40;;;6.22;;
43088;SDS011;28709;52.030;5.652;2022-09-13T05:29:30;7.72;;;6.00;;
43088;SDS011;28709;52.030;5.652;2022-09-13T05:31:55;7.97;;;6.05;;
43088;SDS011;28709;52.030;5.652;2022-09-13T05:34:21;13.95;;;5.78;;
43088;SDS011;28709;52.030;5.652;2022-09-13T05:36:47;14.48;;;7.13;;
43088;SDS011;28709;52.030;5.652;2022-09-13T05:39:15;8.07;;;5.95;;
43088;SDS011;28709;52.030;5.652;2022-09-13T05:41:45;12.20;;;7.35;;
43088;SDS011;28709;52.030;5.652;2022-09-13T05:44:11;8.05;;;5.72;;
43088;SDS011;28709;52.030;5.652;2022-09-13T05:46:37;11.95;;;7.05;;
43088;SDS011;28709;52.030;5.652;2022-09-13T05:49:02;11.48;;;5.95;;
43088;SDS011;28709;52.030;5.652;2022-09-13T05:51:28;9.65;;;6.32;;
43088;SDS011;28709;52.030;5.652;2022-09-13T05:53:55;10.15;;;6.68;;
43088;SDS011;28709;52.030;5.652;2022-09-13T05:56:23;9.38;;;6.40;;
43088;SDS011;28709;52.030;5.652;2022-09-13T05:58:50;13.55;;;7.40;;
43088;SDS011;28709;52.030;5.652;2022-09-13T06:01:18;8.77;;;6.43;;
43088;SDS011;28709;52.030;5.652;2022-09-13T06:03:48;11.82;;;7.65;;
43088;SDS011;28709;52.030;5.652;2022-09-13T06:06:15;11.57;;;7.50;;
43088;SDS011;28709;52.030;5.652;2022-09-13T06:08:42;13.40;;;8.07;;
43088;SDS011;28709;52.030;5.652;2022-09-13T06:11:08;19.40;;;9.15;;
43088;SDS011;28709;52.030;5.652;2022-09-13T06:13:35;15.27;;;8.10;;
43088;SDS011;28709;52.030;5.652;2022-09-13T06:16:02;13.38;;;8.40;;
43088;SDS011;28709;52.030;5.652;2022-09-13T06:18:29;11.98;;;8.20;;
43088;SDS011;28709;52.030;5.652;2022-09-13T06:20:57;16.20;;;8.75;;
43088;SDS011;28709;52.030;5.652;2022-09-13T06:23:28;14.70;;;8.85;;
43088;SDS011;28709;52.030;5.652;2022-09-13T06:28:30;12.95;;;8.25;;
43088;SDS011;28709;52.030;5.652;2022-09-13T06:31:03;10.32;;;6.60;;
43088;SDS011;28709;52.030;5.652;2022-09-13T06:33:31;15.18;;;7.47;;
43088;SDS011;28709;52.030;5.652;2022-09-13T06:36:04;13.43;;;8.85;;
43088;SDS011;28709;52.030;5.652;2022-09-13T06:38:31;9.85;;;6.85;;
43088;SDS011;28709;52.030;5.652;2022-09-13T06:43:30;10.65;;;7.38;;
43088;SDS011;28709;52.030;5.652;2022-09-13T06:46:03;10.65;;;7.70;;
43088;SDS011;28709;52.030;5.652;2022-09-13T06:48:30;10.73;;;7.25;;
43088;SDS011;28709;52.030;5.652;2022-09-13T06:50:58;10.38;;;7.20;;
43088;SDS011;28709;52.030;5.652;2022-09-13T06:53:24;14.75;;;6.82;;
43088;SDS011;28709;52.030;5.652;2022-09-13T06:56:01;12.40;;;7.63;;
43088;SDS011;28709;52.030;5.652;2022-09-13T06:58:31;12.88;;;8.45;;
43088;SDS011;28709;52.030;5.652;2022-09-13T07:01:05;13.88;;;8.45;;
43088;SDS011;28709;52.030;5.652;2022-09-13T07:03:40;19.95;;;11.75;;
43088;SDS011;28709;52.030;5.652;2022-09-13T07:06:07;15.25;;;9.35;;
43088;SDS011;28709;52.030;5.652;2022-09-13T07:08:34;14.38;;;9.52;;
43088;SDS011;28709;52.030;5.652;2022-09-13T07:11:00;14.25;;;8.93;;
43088;SDS011;28709;52.030;5.652;2022-09-13T07:13:26;13.50;;;8.05;;
43088;SDS011;28709;52.030;5.652;2022-09-13T07:15:51;11.88;;;7.63;;
43088;SDS011;28709;52.030;5.652;2022-09-13T07:18:17;10.90;;;6.72;;
43088;SDS011;28709;52.030;5.652;2022-09-13T07:20:42;17.38;;;8.40;;
43088;SDS011;28709;52.030;5.652;2022-09-13T07:23:08;13.95;;;9.30;;
43088;SDS011;28709;52.030;5.652;2022-09-13T07:25:33;16.83;;;9.77;;
43088;SDS011;28709;52.030;5.652;2022-09-13T07:27:59;15.05;;;9.15;;
43088;SDS011;28709;52.030;5.652;2022-09-13T07:30:25;14.73;;;9.20;;
43088;SDS011;28709;52.030;5.652;2022-09-13T07:32:50;13.45;;;9.20;;
43088;SDS011;28709;52.030;5.652;2022-09-13T07:35:16;14.93;;;9.48;;
43088;SDS011;28709;52.030;5.652;2022-09-13T07:37:42;13.70;;;8.48;;
43088;SDS011;28709;52.030;5.652;2022-09-13T07:40:10;13.80;;;9.82;;
43088;SDS011;28709;52.030;5.652;2022-09-13T07:42:36;16.65;;;10.13;;
43088;SDS011;28709;52.030;5.652;2022-09-13T07:45:01;15.38;;;10.07;;
43088;SDS011;28709;52.030;5.652;2022-09-13T07:47:27;18.83;;;11.57;;
43088;SDS011;28709;52.030;5.652;2022-09-13T07:49:53;18.70;;;11.93;;
43088;SDS011;28709;52.030;5.652;2022-09-13T07:52:18;13.50;;;9.35;;
43088;SDS011;28709;52.030;5.652;2022-09-13T07:54:44;15.63;;;9.05;;
43088;SDS011;28709;52.030;5.652;2022-09-13T07:57:10;16.80;;;10.23;;
43088;SDS011;28709;52.030;5.652;2022-09-13T07:59:36;12.02;;;8.38;;
43088;SDS011;28709;52.030;5.652;2022-09-13T08:02:02;14.73;;;9.05;;
43088;SDS011;28709;52.030;5.652;2022-09-13T08:04:28;11.73;;;8.10;;
43088;SDS011;28709;52.030;5.652;2022-09-13T08:06:54;10.90;;;7.70;;
43088;SDS011;28709;52.030;5.652;2022-09-13T08:09:19;11.43;;;8.40;;
43088;SDS011;28709;52.030;5.652;2022-09-13T08:11:46;14.40;;;10.15;;
43088;SDS011;28709;52.030;5.652;2022-09-13T08:14:16;19.55;;;10.57;;
43088;SDS011;28709;52.030;5.652;2022-09-13T08:16:43;15.95;;;8.85;;
43088;SDS011;28709;52.030;5.652;2022-09-13T08:19:12;11.70;;;8.25;;
43088;SDS011;28709;52.030;5.652;2022-09-13T08:21:40;13.00;;;7.85;;
43088;SDS011;28709;52.030;5.652;2022-09-13T08:24:07;13.63;;;8.30;;
43088;SDS011;28709;52.030;5.652;2022-09-13T08:26:37;14.20;;;9.48;;
43088;SDS011;28709;52.030;5.652;2022-09-13T08:29:04;11.68;;;7.32;;
43088;SDS011;28709;52.030;5.652;2022-09-13T08:31:30;9.48;;;7.05;;
43088;SDS011;28709;52.030;5.652;2022-09-13T08:33:57;10.07;;;5.93;;
43088;SDS011;28709;52.030;5.652;2022-09-13T08:36:23;8.07;;;5.32;;
43088;SDS011;28709;52.030;5.652;2022-09-13T08:38:52;9.45;;;5.80;;
43088;SDS011;28709;52.030;5.652;2022-09-13T08:46:38;8.77;;;4.97;;
43088;SDS011;28709;52.030;5.652;2022-09-13T08:49:14;7.75;;;5.50;;
43088;SDS011;28709;52.030;5.652;2022-09-13T08:51:46;9.60;;;5.57;;
43088;SDS011;28709;52.030;5.652;2022-09-13T08:54:16;8.48;;;4.97;;
43088;SDS011;28709;52.030;5.652;2022-09-13T09:02:47;6.50;;;4.90;;
43088;SDS011;28709;52.030;5.652;2022-09-13T09:05:28;6.75;;;4.00;;
43088;SDS011;28709;52.030;5.652;2022-09-13T09:08:01;8.10;;;4.05;;
43088;SDS011;28709;52.030;5.652;2022-09-13T09:15:44;3.97;;;3.22;;
43088;SDS011;28709;52.030;5.652;2022-09-13T09:20:43;6.53;;;3.80;;
43088;SDS011;28709;52.030;5.652;2022-09-13T09:25:45;4.15;;;3.03;;
43088;SDS011;28709;52.030;5.652;2022-09-13T09:28:12;6.95;;;4.03;;
43088;SDS011;28709;52.030;5.652;2022-09-13T09:39:28;5.45;;;2.92;;
43088;SDS011;28709;52.030;5.652;2022-09-13T09:41:57;6.25;;;3.15;;
43088;SDS011;28709;52.030;5.652;2022-09-13T09:44:25;4.95;;;3.30;;
43088;SDS011;28709;52.030;5.652;2022-09-13T09:46:56;2.35;;;2.15;;
43088;SDS011;28709;52.030;5.652;2022-09-13T09:52:48;6.30;;;3.33;;
43088;SDS011;28709;52.030;5.652;2022-09-13T09:55:26;4.43;;;2.87;;
43088;SDS011;28709;52.030;5.652;2022-09-13T09:58:01;3.80;;;2.63;;
43088;SDS011;28709;52.030;5.652;2022-09-13T10:00:33;4.65;;;2.80;;
43088;SDS011;28709;52.030;5.652;2022-09-13T10:03:01;2.88;;;2.13;;
43088;SDS011;28709;52.030;5.652;2022-09-13T10:05:29;3.90;;;2.47;;
43088;SDS011;28709;52.030;5.652;2022-09-13T10:08:00;2.65;;;2.05;;
43088;SDS011;28709;52.030;5.652;2022-09-13T10:10:38;2.33;;;1.77;;
43088;SDS011;28709;52.030;5.652;2022-09-13T10:13:15;4.53;;;2.20;;
43088;SDS011;28709;52.030;5.652;2022-09-13T10:15:53;2.75;;;1.63;;
43088;SDS011;28709;52.030;5.652;2022-09-13T10:18:25;3.88;;;1.60;;
43088;SDS011;28709;52.030;5.652;2022-09-13T10:23:42;3.47;;;2.05;;
43088;SDS011;28709;52.030;5.652;2022-09-13T10:26:09;4.15;;;2.05;;
43088;SDS011;28709;52.030;5.652;2022-09-13T10:31:15;1.45;;;1.20;;
43088;SDS011;28709;52.030;5.652;2022-09-13T10:33:50;4.88;;;2.80;;
43088;SDS011;28709;52.030;5.652;2022-09-13T10:36:23;3.17;;;2.03;;
43088;SDS011;28709;52.030;5.652;2022-09-13T10:39:01;2.85;;;1.30;;
43088;SDS011;28709;52.030;5.652;2022-09-13T10:41:31;1.20;;;0.98;;
43088;SDS011;28709;52.030;5.652;2022-09-13T10:44:00;1.83;;;1.10;;
43088;SDS011;28709;52.030;5.652;2022-09-13T10:46:29;13.77;;;1.42;;
43088;SDS011;28709;52.030;5.652;2022-09-13T10:48:57;2.25;;;0.80;;
43088;SDS011;28709;52.030;5.652;2022-09-13T10:56:33;3.67;;;1.20;;
43088;SDS011;28709;52.030;5.652;2022-09-13T10:59:16;1.13;;;1.02;;
43088;SDS011;28709;52.030;5.652;2022-09-13T11:10:27;0.95;;;0.90;;
43088;SDS011;28709;52.030;5.652;2022-09-13T11:15:46;2.47;;;0.82;;
43088;SDS011;28709;52.030;5.652;2022-09-13T11:31:44;2.55;;;0.88;;
43088;SDS011;28709;52.030;5.652;2022-09-13T11:53:14;1.25;;;0.80;;
43088;SDS011;28709;52.030;5.652;2022-09-13T11:56:00;1.90;;;0.70;;
43088;SDS011;28709;52.030;5.652;2022-09-13T11:58:34;1.58;;;0.75;;
43088;SDS011;28709;52.030;5.652;2022-09-13T12:01:09;1.30;;;0.80;;
43088;SDS011;28709;52.030;5.652;2022-09-13T12:06:37;0.88;;;0.60;;
43088;SDS011;28709;52.030;5.652;2022-09-13T12:09:06;1.70;;;0.73;;
43088;SDS011;28709;52.030;5.652;2022-09-13T12:11:40;1.63;;;1.15;;
43088;SDS011;28709;52.030;5.652;2022-09-13T12:14:20;1.08;;;0.68;;
43088;SDS011;28709;52.030;5.652;2022-09-13T12:16:50;1.17;;;0.50;;
43088;SDS011;28709;52.030;5.652;2022-09-13T12:19:20;3.95;;;0.98;;
43088;SDS011;28709;52.030;5.652;2022-09-13T12:21:53;0.88;;;0.85;;
43088;SDS011;28709;52.030;5.652;2022-09-13T12:24:27;0.93;;;0.65;;
43088;SDS011;28709;52.030;5.652;2022-09-13T12:27:12;1.08;;;0.40;;
43088;SDS011;28709;52.030;5.652;2022-09-13T12:32:39;1.17;;;0.32;;
43088;SDS011;28709;52.030;5.652;2022-09-13T12:35:31;0.55;;;0.55;;
43088;SDS011;28709;52.030;5.652;2022-09-13T12:51:24;1.13;;;0.73;;
43088;SDS011;28709;52.030;5.652;2022-09-13T13:05:00;0.50;;;0.50;;
43088;SDS011;28709;52.030;5.652;2022-09-13T13:07:41;2.40;;;1.00;;
43088;SDS011;28709;52.030;5.652;2022-09-13T13:10:28;1.20;;;0.63;;
43088;SDS011;28709;52.030;5.652;2022-09-13T13:13:07;2.53;;;0.88;;
43088;SDS011;28709;52.030;5.652;2022-09-13T13:18:19;0.90;;;0.50;;
43088;SDS011;28709;52.030;5.652;2022-09-13T13:23:36;4.00;;;0.57;;
43088;SDS011;28709;52.030;5.652;2022-09-13T13:33:55;2.42;;;0.77;;
43088;SDS011;28709;52.030;5.652;2022-09-13T13:39:03;3.28;;;0.70;;
43088;SDS011;28709;52.030;5.652;2022-09-13T13:41:59;1.70;;;0.63;;
43088;SDS011;28709;52.030;5.652;2022-09-13T14:00:22;5.57;;;0.60;;
43088;SDS011;28709;52.030;5.652;2022-09-13T14:10:30;1.00;;;0.50;;
43088;SDS011;28709;52.030;5.652;2022-09-13T14:19:22;0.85;;;0.40;;
43088;SDS011;28709;52.030;5.652;2022-09-13T14:21:36;1.05;;;0.50;;
43088;SDS011;28709;52.030;5.652;2022-09-13T14:26:51;2.00;;;0.80;;
43088;SDS011;28709;52.030;5.652;2022-09-13T14:29:23;2.00;;;0.50;;
43088;SDS011;28709;52.030;5.652;2022-09-13T14:31:53;1.58;;;0.70;;
43088;SDS011;28709;52.030;5.652;2022-09-13T14:34:34;1.60;;;0.60;;
43088;SDS011;28709;52.030;5.652;2022-09-13T14:37:06;1.60;;;0.90;;
43088;SDS011;28709;52.030;5.652;2022-09-13T14:39:52;1.30;;;0.73;;
43088;SDS011;28709;52.030;5.652;2022-09-13T14:42:19;1.92;;;0.65;;
43088;SDS011;28709;52.030;5.652;2022-09-13T14:44:45;2.72;;;0.60;;
43088;SDS011;28709;52.030;5.652;2022-09-13T14:49:48;1.45;;;0.52;;
43088;SDS011;28709;52.030;5.652;2022-09-13T14:52:29;0.93;;;0.30;;
43088;SDS011;28709;52.030;5.652;2022-09-13T14:55:01;1.85;;;0.60;;
43088;SDS011;28709;52.030;5.652;2022-09-13T14:57:36;1.52;;;0.80;;
43088;SDS011;28709;52.030;5.652;2022-09-13T15:00:06;10.48;;;5.85;;
43088;SDS011;28709;52.030;5.652;2022-09-13T15:02:48;3.05;;;1.70;;
43088;SDS011;28709;52.030;5.652;2022-09-13T15:05:16;2.00;;;0.98;;
43088;SDS011;28709;52.030;5.652;2022-09-13T15:07:44;2.70;;;1.33;;
43088;SDS011;28709;52.030;5.652;2022-09-13T15:23:23;2.30;;;0.75;;
43088;SDS011;28709;52.030;5.652;2022-09-13T15:28:50;4.65;;;0.52;;
43088;SDS011;28709;52.030;5.652;2022-09-13T15:31:31;2.33;;;0.43;;
43088;SDS011;28709;52.030;5.652;2022-09-13T15:34:11;1.65;;;0.55;;
43088;SDS011;28709;52.030;5.652;2022-09-13T15:37:08;1.75;;;0.70;;
43088;SDS011;28709;52.030;5.652;2022-09-13T15:39:44;1.05;;;0.30;;
43088;SDS011;28709;52.030;5.652;2022-09-13T15:42:14;0.90;;;0.60;;
43088;SDS011;28709;52.030;5.652;2022-09-13T15:44:41;3.38;;;1.23;;
43088;SDS011;28709;52.030;5.652;2022-09-13T15:47:08;0.40;;;0.38;;
43088;SDS011;28709;52.030;5.652;2022-09-13T15:49:46;1.08;;;0.38;;
43088;SDS011;28709;52.030;5.652;2022-09-13T15:52:14;1.90;;;0.55;;
43088;SDS011;28709;52.030;5.652;2022-09-13T15:54:41;3.92;;;1.20;;
43088;SDS011;28709;52.030;5.652;2022-09-13T15:57:08;3.58;;;0.47;;
43088;SDS011;28709;52.030;5.652;2022-09-13T15:59:42;3.30;;;0.73;;
43088;SDS011;28709;52.030;5.652;2022-09-13T16:02:14;3.53;;;1.20;;
43088;SDS011;28709;52.030;5.652;2022-09-13T16:04:49;0.85;;;0.40;;
43088;SDS011;28709;52.030;5.652;2022-09-13T16:07:15;0.50;;;0.30;;
43088;SDS011;28709;52.030;5.652;2022-09-13T16:09:41;0.90;;;0.30;;
43088;SDS011;28709;52.030;5.652;2022-09-13T16:12:09;1.55;;;0.70;;
43088;SDS011;28709;52.030;5.652;2022-09-13T16:14:35;1.48;;;0.68;;
43088;SDS011;28709;52.030;5.652;2022-09-13T16:17:05;1.35;;;0.55;;
43088;SDS011;28709;52.030;5.652;2022-09-13T16:19:34;0.75;;;0.20;;
43088;SDS011;28709;52.030;5.652;2022-09-13T16:22:00;7.18;;;0.70;;
43088;SDS011;28709;52.030;5.652;2022-09-13T16:24:25;1.60;;;0.43;;
43088;SDS011;28709;52.030;5.652;2022-09-13T16:26:51;1.67;;;0.40;;
43088;SDS011;28709;52.030;5.652;2022-09-13T16:29:17;1.45;;;0.32;;
43088;SDS011;28709;52.030;5.652;2022-09-13T16:31:42;2.35;;;0.60;;
43088;SDS011;28709;52.030;5.652;2022-09-13T16:34:08;3.05;;;0.82;;
43088;SDS011;28709;52.030;5.652;2022-09-13T16:36:34;4.00;;;0.70;;
43088;SDS011;28709;52.030;5.652;2022-09-13T16:38:59;1.70;;;0.40;;
43088;SDS011;28709;52.030;5.652;2022-09-13T16:41:25;2.70;;;0.80;;
43088;SDS011;28709;52.030;5.652;2022-09-13T16:43:53;4.80;;;0.70;;
43088;SDS011;28709;52.030;5.652;2022-09-13T16:46:18;2.15;;;0.55;;
43088;SDS011;28709;52.030;5.652;2022-09-13T16:48:45;1.17;;;0.50;;
43088;SDS011;28709;52.030;5.652;2022-09-13T16:51:18;3.28;;;0.65;;
43088;SDS011;28709;52.030;5.652;2022-09-13T16:53:43;2.13;;;0.63;;
43088;SDS011;28709;52.030;5.652;2022-09-13T16:56:10;2.33;;;0.75;;
43088;SDS011;28709;52.030;5.652;2022-09-13T16:58:41;2.63;;;0.50;;
43088;SDS011;28709;52.030;5.652;2022-09-13T17:01:11;3.40;;;0.80;;
43088;SDS011;28709;52.030;5.652;2022-09-13T17:03:38;2.20;;;0.40;;
43088;SDS011;28709;52.030;5.652;2022-09-13T17:06:08;1.30;;;0.50;;
43088;SDS011;28709;52.030;5.652;2022-09-13T17:08:36;2.63;;;0.93;;
43088;SDS011;28709;52.030;5.652;2022-09-13T17:11:04;1.63;;;0.75;;
43088;SDS011;28709;52.030;5.652;2022-09-13T17:13:30;1.70;;;0.63;;
43088;SDS011;28709;52.030;5.652;2022-09-13T17:15:56;3.63;;;0.68;;
43088;SDS011;28709;52.030;5.652;2022-09-13T17:18:22;3.80;;;0.60;;
43088;SDS011;28709;52.030;5.652;2022-09-13T17:20:48;6.30;;;0.50;;
43088;SDS011;28709;52.030;5.652;2022-09-13T17:23:14;5.82;;;0.85;;
43088;SDS011;28709;52.030;5.652;2022-09-13T17:25:41;1.75;;;0.30;;
43088;SDS011;28709;52.030;5.652;2022-09-13T17:28:10;2.67;;;0.50;;
43088;SDS011;28709;52.030;5.652;2022-09-13T17:30:36;2.33;;;0.68;;
43088;SDS011;28709;52.030;5.652;2022-09-13T17:33:02;2.55;;;0.98;;
43088;SDS011;28709;52.030;5.652;2022-09-13T17:35:29;3.80;;;0.50;;
43088;SDS011;28709;52.030;5.652;2022-09-13T17:37:56;2.58;;;0.68;;
43088;SDS011;28709;52.030;5.652;2022-09-13T17:40:23;1.80;;;0.65;;
43088;SDS011;28709;52.030;5.652;2022-09-13T17:42:49;1.13;;;0.40;;
43088;SDS011;28709;52.030;5.652;2022-09-13T17:45:15;2.38;;;0.93;;
43088;SDS011;28709;52.030;5.652;2022-09-13T17:47:40;5.57;;;2.47;;
43088;SDS011;28709;52.030;5.652;2022-09-13T17:50:06;3.47;;;1.58;;
43088;SDS011;28709;52.030;5.652;2022-09-13T17:52:32;3.63;;;0.70;;
43088;SDS011;28709;52.030;5.652;2022-09-13T17:54:58;2.78;;;1.00;;
43088;SDS011;28709;52.030;5.652;2022-09-13T17:57:24;1.48;;;0.90;;
43088;SDS011;28709;52.030;5.652;2022-09-13T17:59:50;2.88;;;0.93;;
43088;SDS011;28709;52.030;5.652;2022-09-13T18:02:17;3.65;;;0.60;;
43088;SDS011;28709;52.030;5.652;2022-09-13T18:04:43;2.50;;;0.88;;
43088;SDS011;28709;52.030;5.652;2022-09-13T18:07:08;6.47;;;1.30;;
43088;SDS011;28709;52.030;5.652;2022-09-13T18:09:34;2.45;;;0.90;;
43088;SDS011;28709;52.030;5.652;2022-09-13T18:12:00;1.92;;;0.90;;
43088;SDS011;28709;52.030;5.652;2022-09-13T18:14:26;0.70;;;0.40;;
43088;SDS011;28709;52.030;5.652;2022-09-13T18:16:51;2.65;;;0.60;;
43088;SDS011;28709;52.030;5.652;2022-09-13T18:19:22;2.13;;;0.70;;
43088;SDS011;28709;52.030;5.652;2022-09-13T18:21:48;1.77;;;0.63;;
43088;SDS011;28709;52.030;5.652;2022-09-13T18:24:14;3.88;;;1.33;;
43088;SDS011;28709;52.030;5.652;2022-09-13T18:26:39;2.40;;;0.90;;
43088;SDS011;28709;52.030;5.652;2022-09-13T18:29:06;2.15;;;0.50;;
43088;SDS011;28709;52.030;5.652;2022-09-13T18:31:35;1.75;;;0.82;;
43088;SDS011;28709;52.030;5.652;2022-09-13T18:34:01;1.95;;;0.77;;
43088;SDS011;28709;52.030;5.652;2022-09-13T18:36:29;2.22;;;0.98;;
43088;SDS011;28709;52.030;5.652;2022-09-13T18:38:57;1.95;;;0.93;;
43088;SDS011;28709;52.030;5.652;2022-09-13T18:41:28;1.80;;;0.90;;
43088;SDS011;28709;52.030;5.652;2022-09-13T18:43:58;2.20;;;0.50;;
43088;SDS011;28709;52.030;5.652;2022-09-13T18:46:28;2.65;;;0.90;;
43088;SDS011;28709;52.030;5.652;2022-09-13T18:48:56;2.05;;;0.80;;
43088;SDS011;28709;52.030;5.652;2022-09-13T18:51:23;1.95;;;0.77;;
43088;SDS011;28709;52.030;5.652;2022-09-13T18:53:57;3.47;;;0.80;;
43088;SDS011;28709;52.030;5.652;2022-09-13T18:56:24;4.38;;;0.90;;